createdAt,value
2018-09-20T07:19:54.536Z,20.10
2018-09-20T07:22:22.848Z,21.20
2018-09-20T07:24:51.158Z,21.40
2018-09-20T07:27:19.532Z,21.60
2018-09-20T07:29:48.571Z,21.70
2018-09-20T07:32:17.127Z,21.90
2018-09-20T07:34:46.257Z,21.90
2018-09-20T07:37:15.163Z,22.00
2018-09-20T07:39:44.758Z,22.00
2018-09-20T07:42:13.130Z,21.90
2018-09-20T07:44:41.428Z,21.90
2018-09-20T07:47:09.766Z,22.00
2018-09-20T07:49:38.125Z,22.10
2018-09-20T07:52:06.459Z,22.20
2018-09-20T07:54:34.879Z,22.20
2018-09-20T07:57:03.240Z,22.20
2018-09-20T07:59:31.658Z,22.30
2018-09-20T08:02:00.046Z,22.40
2018-09-20T08:04:28.414Z,22.50
2018-09-20T08:06:56.792Z,22.60
2018-09-20T08:09:25.107Z,22.70
2018-09-20T08:11:53.443Z,22.90
2018-09-20T08:14:21.768Z,23.00
2018-09-20T08:16:50.280Z,23.00
2018-09-20T08:19:18.570Z,23.10
2018-09-20T08:21:46.882Z,23.10
2018-09-20T08:24:15.287Z,23.20
2018-09-20T08:26:43.800Z,23.20
2018-09-20T08:29:12.095Z,23.20
2018-09-20T08:31:40.424Z,23.20
2018-09-20T08:34:08.745Z,23.40
2018-09-20T08:36:37.132Z,23.50
2018-09-20T08:39:08.406Z,23.60
2018-09-20T08:41:36.745Z,23.80
2018-09-20T08:44:05.274Z,23.90
2018-09-20T08:46:33.607Z,23.90
2018-09-20T08:49:01.898Z,23.80
2018-09-20T08:51:30.268Z,23.80
2018-09-20T08:53:58.525Z,24.00
2018-09-20T08:56:26.824Z,24.00
2018-09-20T08:58:55.521Z,24.10
2018-09-20T09:01:23.900Z,24.10
2018-09-20T09:03:53.561Z,24.10
2018-09-20T09:06:22.171Z,24.20
2018-09-20T09:08:50.787Z,24.30
2018-09-20T09:11:19.107Z,24.30
2018-09-20T09:13:47.411Z,24.40
2018-09-20T09:16:15.704Z,24.60
2018-09-20T09:18:44.163Z,24.80
2018-09-20T09:21:12.683Z,24.90
2018-09-20T09:23:41.052Z,24.90
2018-09-20T09:26:09.382Z,25.20
2018-09-20T09:28:37.772Z,25.40
2018-09-20T09:31:06.107Z,25.40
2018-09-20T09:33:34.487Z,25.30
2018-09-20T09:36:02.821Z,25.30
2018-09-20T09:38:31.133Z,25.30
2018-09-20T09:40:59.551Z,25.50
2018-09-20T09:43:27.862Z,25.40
2018-09-20T09:45:57.654Z,25.70
2018-09-20T09:48:25.997Z,25.70
2018-09-20T09:50:55.184Z,25.70
2018-09-20T09:53:24.198Z,25.70
2018-09-20T09:55:52.600Z,25.60
2018-09-20T09:58:21.042Z,25.50
2018-09-20T10:00:49.351Z,25.30
2018-09-20T10:03:17.712Z,25.30
2018-09-20T10:05:45.978Z,25.20
2018-09-20T10:08:19.843Z,25.30
2018-09-20T10:10:48.792Z,25.30
2018-09-20T10:13:17.150Z,25.30
2018-09-20T10:15:45.513Z,25.40
2018-09-20T10:18:13.847Z,25.60
2018-09-20T10:20:42.189Z,25.80
2018-09-20T10:23:10.486Z,25.70
2018-09-20T10:25:38.810Z,25.70
2018-09-20T10:28:07.177Z,25.90
2018-09-20T10:30:35.600Z,25.90
2018-09-20T10:33:03.939Z,25.90
2018-09-20T10:35:32.292Z,25.70
2018-09-20T10:38:00.623Z,25.90
2018-09-20T10:40:28.989Z,25.90
2018-09-20T10:42:57.317Z,25.80
2018-09-20T10:45:25.650Z,25.70
2018-09-20T10:47:54.057Z,25.70
2018-09-20T10:50:22.384Z,25.80
2018-09-20T10:52:50.664Z,25.90
2018-09-20T10:55:18.985Z,25.90
2018-09-20T10:57:47.328Z,26.00
2018-09-20T11:00:15.796Z,26.00
2018-09-20T11:02:44.160Z,25.80
2018-09-20T11:05:12.464Z,25.70
2018-09-20T11:07:40.800Z,25.80
2018-09-20T11:10:09.276Z,25.80
2018-09-20T11:12:37.625Z,25.70
2018-09-20T11:15:06.199Z,25.90
2018-09-20T11:17:34.550Z,25.80
2018-09-20T11:20:03.039Z,25.90
2018-09-20T11:22:31.374Z,25.80
2018-09-20T11:24:59.761Z,25.90
2018-09-20T11:27:28.129Z,25.90
2018-09-20T11:29:56.573Z,26.00
2018-09-20T11:32:24.901Z,26.10
2018-09-20T11:34:53.289Z,26.20
2018-09-20T11:37:22.435Z,26.20
2018-09-20T11:39:50.772Z,26.30
2018-09-20T11:42:19.107Z,26.30
2018-09-20T11:44:47.445Z,26.30
2018-09-20T11:47:15.780Z,26.30
2018-09-20T11:49:44.140Z,26.30
2018-09-20T11:52:12.483Z,26.30
2018-09-20T11:54:40.831Z,26.40
2018-09-20T11:57:09.093Z,26.40
2018-09-20T11:59:37.594Z,26.40
2018-09-20T12:02:06.021Z,26.50
2018-09-20T12:04:36.001Z,26.50
2018-09-20T12:07:04.377Z,26.40
2018-09-20T12:09:33.051Z,26.50
2018-09-20T12:12:01.455Z,26.60
2018-09-20T12:14:29.858Z,26.80
2018-09-20T12:16:58.215Z,27.00
2018-09-20T12:19:26.551Z,27.10
2018-09-20T12:21:54.855Z,27.30
2018-09-20T12:24:23.232Z,27.60
2018-09-20T12:26:51.541Z,28.10
2018-09-20T12:29:19.870Z,28.70
2018-09-20T12:31:48.157Z,29.20
2018-09-20T12:34:16.563Z,29.40
2018-09-20T12:36:44.884Z,29.70
2018-09-20T12:39:14.716Z,30.10
2018-09-20T12:41:43.143Z,30.80
2018-09-20T12:44:11.438Z,31.00
2018-09-20T12:46:39.863Z,30.80
2018-09-20T12:49:08.231Z,30.80
2018-09-20T12:51:37.014Z,31.00
2018-09-20T12:54:05.462Z,31.80
2018-09-20T12:56:33.825Z,31.80
2018-09-20T12:59:02.196Z,31.80
2018-09-20T13:01:30.612Z,32.30
2018-09-20T13:04:05.528Z,32.30
2018-09-20T13:06:33.876Z,32.30
2018-09-20T13:09:02.222Z,32.60
2018-09-20T13:11:30.569Z,33.10
2018-09-20T13:13:58.938Z,33.50
2018-09-20T13:16:27.704Z,33.20
2018-09-20T13:18:56.056Z,33.40
2018-09-20T13:21:24.356Z,33.90
2018-09-20T13:23:52.729Z,34.50
2018-09-20T13:26:21.059Z,34.20
2018-09-20T13:28:49.461Z,33.70
2018-09-20T13:31:17.793Z,33.80
2018-09-20T13:33:46.308Z,34.30
2018-09-20T13:36:14.668Z,34.50
2018-09-20T13:38:43.052Z,34.30
2018-09-20T13:41:11.362Z,34.40
2018-09-20T13:43:39.717Z,34.70
2018-09-20T13:46:08.075Z,35.00
2018-09-20T13:48:36.460Z,35.30
2018-09-20T13:51:05.439Z,34.70
2018-09-20T13:53:33.863Z,35.20
2018-09-20T13:56:02.244Z,36.10
2018-09-20T13:58:30.672Z,36.10
2018-09-20T14:00:58.973Z,36.40
2018-09-20T14:03:27.412Z,36.80
2018-09-20T14:05:56.028Z,36.50
2018-09-20T14:08:24.564Z,35.70
2018-09-20T14:10:52.879Z,34.90
2018-09-20T14:13:21.300Z,34.90
2018-09-20T14:15:49.583Z,35.30
2018-09-20T14:18:17.918Z,35.40
2018-09-20T14:20:46.476Z,34.80
2018-09-20T14:23:14.844Z,34.60
2018-09-20T14:25:43.212Z,34.90
2018-09-20T14:28:11.488Z,35.40
2018-09-20T14:30:40.480Z,35.90
2018-09-20T14:33:08.792Z,36.00
2018-09-20T14:35:37.133Z,36.10
2018-09-20T14:38:05.625Z,36.70
2018-09-20T14:40:34.053Z,37.20
2018-09-20T14:43:02.412Z,37.10
2018-09-20T14:45:30.749Z,36.70
2018-09-20T14:47:59.154Z,36.40
2018-09-20T14:50:27.535Z,35.30
2018-09-20T14:52:55.948Z,34.90
2018-09-20T14:55:24.326Z,34.80
2018-09-20T14:57:52.750Z,34.90
2018-09-20T15:00:21.156Z,35.00
2018-09-20T15:02:49.568Z,34.30
2018-09-20T15:05:17.873Z,34.00
2018-09-20T15:07:46.220Z,34.40
2018-09-20T15:10:14.583Z,34.00
2018-09-20T15:12:42.887Z,33.40
2018-09-20T15:15:11.316Z,34.10
2018-09-20T15:17:39.697Z,34.50
2018-09-20T15:20:08.134Z,34.30
2018-09-20T15:22:36.487Z,33.20
2018-09-20T15:25:04.864Z,32.30
2018-09-20T15:27:33.277Z,31.30
2018-09-20T15:30:01.621Z,30.80
2018-09-20T15:32:29.988Z,30.30
2018-09-20T15:34:58.361Z,29.90
2018-09-20T15:37:26.716Z,29.70
2018-09-20T15:39:55.074Z,29.40
2018-09-20T15:42:23.635Z,29.20
2018-09-20T15:44:52.022Z,29.20
2018-09-20T15:47:20.373Z,29.10
2018-09-20T15:52:23.505Z,28.90
2018-09-20T15:54:51.849Z,28.90
2018-09-20T15:57:20.209Z,28.90
2018-09-20T15:59:48.524Z,28.80
2018-09-20T16:02:16.838Z,28.80
2018-09-20T16:04:45.162Z,28.80
2018-09-20T16:07:13.818Z,28.80
2018-09-20T16:09:42.184Z,28.70
2018-09-20T16:12:10.490Z,28.70
2018-09-20T16:14:38.884Z,28.60
2018-09-20T16:17:07.213Z,28.60
2018-09-20T16:19:35.555Z,28.50
2018-09-20T16:22:03.953Z,28.40
2018-09-20T16:24:32.326Z,28.30
2018-09-20T16:27:00.673Z,28.20
2018-09-20T16:29:53.863Z,28.10
2018-09-20T16:32:49.139Z,27.90
2018-09-20T16:35:30.373Z,27.80
2018-09-20T16:38:09.419Z,27.70
2018-09-20T16:40:41.407Z,27.60
2018-09-20T16:43:09.715Z,27.40
2018-09-20T16:45:38.105Z,27.30
2018-09-20T16:48:06.464Z,27.30
2018-09-20T16:50:34.810Z,27.20
2018-09-20T16:53:03.174Z,27.10
2018-09-20T16:55:31.534Z,27.00
2018-09-20T16:57:59.863Z,26.90
2018-09-20T17:00:28.211Z,26.80
2018-09-20T17:02:56.499Z,26.60
2018-09-20T17:05:24.857Z,26.60
2018-09-20T17:07:53.259Z,26.40
2018-09-20T17:10:21.660Z,26.30
2018-09-20T17:12:50.039Z,26.20
2018-09-20T17:15:18.446Z,26.10
2018-09-20T17:17:46.805Z,26.00
2018-09-20T17:20:15.177Z,25.90
2018-09-20T17:22:43.515Z,25.70
2018-09-20T17:25:11.885Z,25.60
2018-09-20T17:27:40.214Z,25.40
2018-09-20T17:30:08.534Z,25.30
2018-09-20T17:32:36.869Z,25.10
2018-09-20T17:35:05.578Z,25.10
2018-09-20T17:37:35.060Z,25.00
2018-09-20T17:40:03.911Z,24.90
2018-09-20T17:42:33.576Z,24.80
2018-09-20T17:45:01.978Z,24.70
2018-09-20T17:47:30.491Z,24.60
2018-09-20T17:49:58.777Z,24.60
2018-09-20T17:52:27.613Z,24.50
2018-09-20T17:54:56.716Z,24.40
2018-09-20T17:57:26.289Z,24.40
2018-09-20T17:59:54.635Z,24.30
2018-09-20T18:02:22.950Z,24.30
2018-09-20T18:04:51.313Z,24.20
2018-09-20T18:07:19.682Z,24.10
2018-09-20T18:09:48.027Z,24.10
2018-09-20T18:12:16.479Z,24.00
2018-09-20T18:14:44.803Z,24.00
2018-09-20T18:17:13.104Z,23.90
2018-09-20T18:19:41.433Z,23.80
2018-09-20T18:22:09.793Z,23.80
2018-09-20T18:24:38.420Z,23.80
2018-09-20T18:27:06.760Z,23.80
2018-09-20T18:29:35.137Z,23.80
2018-09-20T18:32:03.509Z,23.70
2018-09-20T18:34:31.815Z,23.70
2018-09-20T18:37:00.278Z,23.70
2018-09-20T18:39:28.591Z,23.60
2018-09-20T18:41:57.024Z,23.50
2018-09-20T18:49:21.455Z,23.50
2018-09-20T18:51:50.032Z,23.30
2018-09-20T18:54:18.328Z,23.20
2018-09-20T18:56:46.612Z,23.20
2018-09-20T18:59:14.938Z,23.20
2018-09-20T19:01:43.303Z,23.20
2018-09-20T19:04:11.630Z,23.10
2018-09-20T19:06:40.921Z,23.20
2018-09-20T19:09:09.697Z,23.10
2018-09-20T19:11:38.391Z,23.20
2018-09-20T19:14:07.000Z,23.10
2018-09-20T19:16:35.558Z,23.10
2018-09-20T19:19:03.989Z,23.10
2018-09-20T19:21:32.411Z,23.10
2018-09-20T19:24:00.832Z,23.10
2018-09-20T19:26:29.237Z,23.00
2018-09-20T19:28:57.592Z,23.00
2018-09-20T19:31:25.923Z,22.90
2018-09-20T19:33:54.277Z,22.90
2018-09-20T19:36:22.759Z,22.80
2018-09-20T19:38:51.194Z,22.80
2018-09-20T19:41:19.527Z,22.70
2018-09-20T19:43:47.900Z,22.70
2018-09-20T19:46:16.228Z,22.60
2018-09-20T19:48:44.642Z,22.50
2018-09-20T19:51:13.078Z,22.50
2018-09-20T19:53:42.435Z,22.40
2018-09-20T19:56:10.825Z,22.30
2018-09-20T19:58:39.172Z,22.30
2018-09-20T20:01:07.526Z,22.20
2018-09-20T20:03:36.051Z,22.10
2018-09-20T20:06:04.384Z,22.10
2018-09-20T20:08:32.704Z,22.00
2018-09-20T20:11:01.231Z,22.00
2018-09-20T20:13:29.575Z,22.00
2018-09-20T20:15:57.883Z,21.90
2018-09-20T20:18:26.933Z,21.80
2018-09-20T20:20:55.329Z,21.80
2018-09-20T20:23:23.668Z,21.70
2018-09-20T20:25:51.994Z,21.70
2018-09-20T20:28:20.312Z,21.60
2018-09-20T20:30:48.719Z,21.60
2018-09-20T20:33:17.104Z,21.60
2018-09-20T20:35:45.595Z,21.50
